createdAt,value
2018-10-02T00:00:27.502Z,54.07
2018-10-02T00:01:27.464Z,54.08
2018-10-02T00:02:27.447Z,54.07
2018-10-02T00:03:27.307Z,54.07
2018-10-02T00:04:27.545Z,54.04
2018-10-02T00:05:27.913Z,54.09
2018-10-02T00:06:27.539Z,54.04
2018-10-02T00:07:27.350Z,54.07
2018-10-02T00:08:27.275Z,54.07
2018-10-02T00:09:27.548Z,54.01
2018-10-02T00:10:27.318Z,54.09
2018-10-02T00:11:27.410Z,54.07
2018-10-02T00:12:27.484Z,54.04
2018-10-02T00:13:27.483Z,54.07
2018-10-02T00:14:27.606Z,54.03
2018-10-02T00:15:27.358Z,54.02
2018-10-02T00:16:27.383Z,54.02
2018-10-02T00:17:27.915Z,54.02
2018-10-02T00:18:27.428Z,54.03
2018-10-02T00:19:27.323Z,54.02
2018-10-02T00:20:27.411Z,54.02
2018-10-02T00:21:27.791Z,54.06
2018-10-02T00:22:27.495Z,54.06
2018-10-02T00:23:27.560Z,54.08
2018-10-02T00:24:27.514Z,54.03
2018-10-02T00:25:27.384Z,54.03
2018-10-02T00:26:27.418Z,53.99
2018-10-02T00:27:27.395Z,54.03
2018-10-02T00:28:27.498Z,54.06
2018-10-02T00:29:27.862Z,54
2018-10-02T00:30:27.506Z,54.07
2018-10-02T00:31:28.761Z,54.06
2018-10-02T00:32:29.905Z,54.05
2018-10-02T00:33:27.737Z,54.08
2018-10-02T00:34:27.456Z,54.07
2018-10-02T00:35:27.470Z,54.04
2018-10-02T00:36:27.787Z,54.03
2018-10-02T00:37:27.508Z,53.97
2018-10-02T00:38:27.717Z,54.02
2018-10-02T00:39:27.787Z,54
2018-10-02T00:40:27.356Z,54.04
2018-10-02T00:41:27.447Z,54.01
2018-10-02T00:42:27.410Z,54.04
2018-10-02T00:43:27.263Z,53.99
2018-10-02T00:44:27.381Z,54.08
2018-10-02T00:45:27.834Z,54.07
2018-10-02T00:46:27.711Z,54.02
2018-10-02T00:47:27.739Z,54.04
2018-10-02T00:48:27.641Z,54.05
2018-10-02T00:49:27.521Z,54.06
2018-10-02T00:50:27.499Z,54.05
2018-10-02T00:51:27.455Z,54.02
2018-10-02T00:52:27.511Z,54
2018-10-02T00:53:27.280Z,54.05
2018-10-02T00:54:27.445Z,54.06
2018-10-02T00:55:27.319Z,54.02
2018-10-02T00:56:27.457Z,54.03
2018-10-02T00:57:27.793Z,53.97
2018-10-02T00:58:27.375Z,54.03
2018-10-02T00:59:27.363Z,54.03
2018-10-02T01:00:27.794Z,54
2018-10-02T01:01:27.389Z,53.97
2018-10-02T01:02:27.438Z,54.01
2018-10-02T01:03:27.372Z,53.98
2018-10-02T01:04:27.474Z,54
2018-10-02T01:05:27.525Z,54.05
2018-10-02T01:06:27.830Z,54.03
2018-10-02T01:07:27.968Z,54
2018-10-02T01:08:27.327Z,54.03
2018-10-02T01:09:27.457Z,54
2018-10-02T01:10:27.389Z,54.03
2018-10-02T01:11:27.461Z,53.97
2018-10-02T01:12:27.702Z,54.01
2018-10-02T01:13:27.516Z,53.97
2018-10-02T01:14:27.837Z,54.02
2018-10-02T01:15:27.295Z,53.99
2018-10-02T01:16:27.463Z,54
2018-10-02T01:17:27.373Z,53.98
2018-10-02T01:18:27.576Z,53.97
2018-10-02T01:19:27.750Z,54
2018-10-02T01:20:27.442Z,54.02
2018-10-02T01:21:27.536Z,54
2018-10-02T01:22:27.368Z,53.97
2018-10-02T01:23:27.289Z,53.99
2018-10-02T01:24:27.361Z,53.98
2018-10-02T01:25:27.929Z,53.97
2018-10-02T01:26:27.554Z,53.97
2018-10-02T01:27:27.410Z,53.97
2018-10-02T01:28:27.408Z,53.96
2018-10-02T01:29:27.312Z,53.97
2018-10-02T01:30:27.300Z,53.99
2018-10-02T01:31:27.409Z,54
2018-10-02T01:32:27.768Z,53.99
2018-10-02T01:33:27.403Z,53.98
2018-10-02T01:34:27.564Z,54
2018-10-02T01:35:27.456Z,54.02
2018-10-02T01:36:27.516Z,54.03
2018-10-02T01:37:27.373Z,53.99
2018-10-02T01:38:27.495Z,53.98
2018-10-02T01:39:27.460Z,53.96
2018-10-02T01:40:27.353Z,53.99
2018-10-02T01:41:27.308Z,54.01
2018-10-02T01:42:27.555Z,54.01
2018-10-02T01:43:27.498Z,54.01
2018-10-02T01:44:27.815Z,54.03
2018-10-02T01:45:27.479Z,53.99
2018-10-02T01:46:27.519Z,54
2018-10-02T01:47:27.352Z,53.97
2018-10-02T01:48:27.350Z,53.98
2018-10-02T01:49:27.511Z,53.97
2018-10-02T01:50:27.435Z,53.98
2018-10-02T01:51:27.308Z,53.99
2018-10-02T01:52:27.326Z,53.97
2018-10-02T01:53:27.385Z,53.99
2018-10-02T01:54:27.903Z,53.95
2018-10-02T01:55:27.440Z,53.98
2018-10-02T01:56:27.361Z,53.99
2018-10-02T01:57:27.256Z,53.95
2018-10-02T01:58:27.365Z,53.95
2018-10-02T01:59:27.303Z,53.98
2018-10-02T02:00:27.468Z,53.97
2018-10-02T02:01:27.446Z,53.91
2018-10-02T02:02:27.395Z,53.93
2018-10-02T02:03:27.434Z,53.94
2018-10-02T02:04:27.457Z,53.89
2018-10-02T02:05:27.477Z,53.91
2018-10-02T02:06:27.802Z,53.9
2018-10-02T02:07:27.321Z,53.97
2018-10-02T02:08:27.390Z,53.92
2018-10-02T02:09:27.382Z,53.96
2018-10-02T02:10:27.432Z,53.9
2018-10-02T02:11:27.621Z,53.93
2018-10-02T02:12:27.454Z,53.93
2018-10-02T02:13:27.518Z,53.98
2018-10-02T02:14:27.863Z,53.92
2018-10-02T02:15:27.734Z,53.94
2018-10-02T02:16:27.499Z,53.95
2018-10-02T02:17:27.348Z,53.95
2018-10-02T02:18:27.492Z,53.95
2018-10-02T02:19:27.774Z,53.94
2018-10-02T02:20:27.453Z,53.9
2018-10-02T02:21:27.386Z,53.9
2018-10-02T02:22:27.498Z,53.92
2018-10-02T02:23:27.563Z,53.85
2018-10-02T02:24:27.336Z,53.89
2018-10-02T02:25:27.565Z,53.9
2018-10-02T02:26:27.287Z,53.89
2018-10-02T02:27:27.899Z,53.88
2018-10-02T02:28:27.397Z,53.89
2018-10-02T02:29:27.216Z,53.87
2018-10-02T02:30:27.876Z,53.88
2018-10-02T02:31:27.398Z,53.92
2018-10-02T02:32:27.439Z,53.94
2018-10-02T02:33:27.385Z,53.9
2018-10-02T02:34:27.336Z,53.9
2018-10-02T02:35:27.787Z,54
2018-10-02T02:36:27.432Z,53.92
2018-10-02T02:37:27.396Z,53.91
2018-10-02T02:38:27.615Z,53.91
2018-10-02T02:39:27.619Z,53.9
2018-10-02T02:40:27.409Z,53.91
2018-10-02T02:41:27.368Z,53.91
2018-10-02T02:42:27.232Z,53.95
2018-10-02T02:43:27.280Z,53.92
2018-10-02T02:44:27.154Z,53.87
2018-10-02T02:45:27.643Z,53.87
2018-10-02T02:46:27.178Z,53.88
2018-10-02T02:47:27.409Z,53.88
2018-10-02T02:48:27.277Z,53.83
2018-10-02T02:49:27.434Z,53.88
2018-10-02T02:50:27.631Z,53.85
2018-10-02T02:51:27.346Z,53.9
2018-10-02T02:52:27.791Z,53.86
2018-10-02T02:53:27.365Z,53.89
2018-10-02T02:54:27.525Z,53.86
2018-10-02T02:55:27.396Z,53.82
2018-10-02T02:56:27.202Z,53.86
2018-10-02T02:57:27.374Z,53.88
2018-10-02T02:58:27.411Z,53.87
2018-10-02T02:59:27.672Z,53.84
2018-10-02T03:00:27.534Z,53.8
2018-10-02T03:01:27.333Z,53.9
2018-10-02T03:02:27.312Z,53.82
2018-10-02T03:03:27.558Z,53.86
2018-10-02T03:04:27.314Z,53.83
2018-10-02T03:05:27.446Z,53.86
2018-10-02T03:06:27.443Z,53.82
2018-10-02T03:07:27.622Z,53.83
2018-10-02T03:08:27.258Z,53.83
2018-10-02T03:09:27.506Z,53.78
2018-10-02T03:10:27.368Z,53.75
2018-10-02T03:11:27.433Z,53.81
2018-10-02T03:12:27.351Z,53.8
2018-10-02T03:13:27.332Z,53.79
2018-10-02T03:14:27.503Z,53.78
2018-10-02T03:15:27.559Z,53.87
2018-10-02T03:16:27.394Z,53.82
2018-10-02T03:17:27.547Z,53.88
2018-10-02T03:18:27.370Z,53.82
2018-10-02T03:19:27.933Z,53.83
2018-10-02T03:20:27.496Z,53.82
2018-10-02T03:21:27.384Z,53.86
2018-10-02T03:22:27.434Z,53.82
2018-10-02T03:23:27.354Z,53.86
2018-10-02T03:24:27.594Z,53.86
2018-10-02T03:25:27.536Z,53.8
2018-10-02T03:26:27.467Z,53.91
2018-10-02T03:27:27.399Z,53.83
2018-10-02T03:28:27.558Z,53.8
2018-10-02T03:29:27.661Z,53.82
2018-10-02T03:30:27.543Z,53.85
2018-10-02T03:31:27.918Z,53.86
2018-10-02T03:32:27.405Z,53.8
2018-10-02T03:33:27.427Z,53.82
2018-10-02T03:34:27.430Z,53.85
2018-10-02T03:35:27.355Z,53.8
2018-10-02T03:36:27.378Z,53.82
2018-10-02T03:37:27.694Z,53.81
2018-10-02T03:38:27.387Z,53.81
2018-10-02T03:39:27.664Z,53.81
2018-10-02T03:40:27.485Z,53.82
2018-10-02T03:41:27.612Z,53.85
2018-10-02T03:42:27.387Z,53.84
2018-10-02T03:43:27.554Z,53.86
2018-10-02T03:44:27.338Z,53.86
2018-10-02T03:45:27.460Z,53.81
2018-10-02T03:46:27.707Z,53.84
2018-10-02T03:47:27.336Z,53.82
2018-10-02T03:48:27.354Z,53.87
2018-10-02T03:49:27.322Z,53.86
2018-10-02T03:50:27.237Z,53.84
2018-10-02T03:51:27.389Z,53.86
2018-10-02T03:52:27.443Z,53.86
2018-10-02T03:53:27.410Z,53.88
2018-10-02T03:54:27.341Z,53.84
2018-10-02T03:55:27.292Z,53.82
2018-10-02T03:56:27.565Z,53.82
2018-10-02T03:57:27.642Z,53.84
2018-10-02T03:58:27.780Z,53.84
2018-10-02T03:59:27.381Z,53.82
2018-10-02T04:00:27.240Z,53.84
2018-10-02T04:01:27.363Z,53.82
2018-10-02T04:02:27.348Z,53.83
2018-10-02T04:03:28.748Z,53.82
2018-10-02T04:04:27.540Z,53.84
2018-10-02T04:05:27.247Z,53.82
2018-10-02T04:06:27.384Z,53.84
2018-10-02T04:07:27.302Z,53.85
2018-10-02T04:08:27.839Z,53.83
2018-10-02T04:09:27.365Z,53.8
2018-10-02T04:10:27.478Z,53.78
2018-10-02T04:11:27.498Z,53.82
2018-10-02T04:12:27.446Z,53.84
2018-10-02T04:13:27.498Z,53.84
2018-10-02T04:14:27.496Z,53.85
2018-10-02T04:15:27.526Z,53.86
2018-10-02T04:16:27.421Z,53.81
2018-10-02T04:17:27.251Z,53.8
2018-10-02T04:18:27.329Z,53.81
2018-10-02T04:19:27.504Z,53.82
2018-10-02T04:20:27.474Z,53.79
2018-10-02T04:21:27.285Z,53.81
2018-10-02T04:22:27.212Z,53.81
2018-10-02T04:23:27.397Z,53.84
2018-10-02T04:24:27.512Z,53.81
2018-10-02T04:25:27.497Z,53.79
2018-10-02T04:26:27.226Z,53.78
2018-10-02T04:27:27.252Z,53.8
2018-10-02T04:28:28.986Z,53.81
2018-10-02T04:29:27.304Z,53.85
2018-10-02T04:30:27.424Z,53.86
2018-10-02T04:31:27.305Z,53.89
2018-10-02T04:32:27.424Z,53.81
2018-10-02T04:33:27.276Z,53.85
2018-10-02T04:34:27.274Z,53.84
2018-10-02T04:35:27.417Z,53.83
2018-10-02T04:36:27.533Z,53.8
2018-10-02T04:37:27.365Z,53.78
2018-10-02T04:38:27.323Z,53.82
2018-10-02T04:39:28.470Z,53.8
2018-10-02T04:40:27.210Z,53.81
2018-10-02T04:41:27.429Z,53.82
2018-10-02T04:42:27.363Z,53.82
2018-10-02T04:43:27.475Z,53.82
2018-10-02T04:44:27.351Z,53.86
2018-10-02T04:45:27.234Z,53.81
2018-10-02T04:46:27.677Z,53.82
2018-10-02T04:47:27.583Z,53.81
2018-10-02T04:48:27.768Z,53.78
2018-10-02T04:49:27.277Z,53.84
2018-10-02T04:50:27.527Z,53.79
2018-10-02T04:51:27.715Z,53.8
2018-10-02T04:52:27.264Z,53.82
2018-10-02T04:53:27.737Z,53.78
2018-10-02T04:54:27.271Z,53.8
2018-10-02T04:55:27.380Z,53.82
2018-10-02T04:56:27.416Z,53.86
2018-10-02T04:57:27.295Z,53.78
2018-10-02T04:58:27.219Z,53.84
2018-10-02T04:59:27.738Z,53.88
2018-10-02T05:00:27.214Z,53.8
2018-10-02T05:01:27.348Z,53.82
2018-10-02T05:02:28.748Z,53.79
2018-10-02T05:03:27.449Z,53.78
2018-10-02T05:04:27.366Z,53.81
2018-10-02T05:05:27.631Z,53.77
2018-10-02T05:06:27.640Z,53.79
2018-10-02T05:07:27.552Z,53.83
2018-10-02T05:08:29.197Z,53.77
2018-10-02T05:09:27.189Z,53.83
2018-10-02T05:10:27.571Z,53.79
2018-10-02T05:11:27.373Z,53.82
2018-10-02T05:12:27.264Z,53.79
2018-10-02T05:13:27.423Z,53.79
2018-10-02T05:14:27.235Z,53.8
2018-10-02T05:15:27.465Z,53.76
2018-10-02T05:16:27.377Z,53.82
2018-10-02T05:17:27.778Z,53.8
2018-10-02T05:18:27.368Z,53.79
2018-10-02T05:19:27.836Z,53.79
2018-10-02T05:20:27.402Z,53.77
2018-10-02T05:21:27.218Z,53.75
2018-10-02T05:22:27.753Z,53.79
2018-10-02T05:23:27.177Z,53.74
2018-10-02T05:24:27.270Z,53.76
2018-10-02T05:25:27.266Z,53.76
2018-10-02T05:26:27.256Z,53.74
2018-10-02T05:27:28.541Z,53.73
2018-10-02T05:28:27.292Z,53.75
2018-10-02T05:29:27.317Z,53.77
2018-10-02T05:30:27.253Z,53.76
2018-10-02T05:31:27.427Z,53.78
2018-10-02T05:32:27.500Z,53.8
2018-10-02T05:33:27.444Z,53.77
2018-10-02T05:34:27.551Z,53.76
2018-10-02T05:35:28.754Z,53.78
2018-10-02T05:36:27.318Z,53.76
2018-10-02T05:37:27.337Z,53.75
2018-10-02T05:38:27.155Z,53.79
2018-10-02T05:39:27.296Z,53.8
2018-10-02T05:40:27.347Z,53.75
2018-10-02T05:41:27.193Z,53.72
2018-10-02T05:42:27.801Z,53.73
2018-10-02T05:43:27.214Z,53.75
2018-10-02T05:44:27.458Z,53.77
2018-10-02T05:45:27.368Z,53.74
2018-10-02T05:46:27.288Z,53.76
2018-10-02T05:47:27.435Z,53.73
2018-10-02T05:48:27.305Z,53.72
2018-10-02T05:49:27.456Z,53.76
2018-10-02T05:50:27.590Z,53.71
2018-10-02T05:51:27.129Z,53.79
2018-10-02T05:52:27.204Z,53.76
2018-10-02T05:53:27.334Z,53.75
2018-10-02T05:54:27.421Z,53.76
2018-10-02T05:55:27.252Z,53.7
2018-10-02T05:56:27.426Z,53.74
2018-10-02T05:57:27.311Z,53.72
2018-10-02T05:58:28.743Z,53.71
2018-10-02T05:59:27.351Z,53.75
2018-10-02T06:00:27.143Z,53.73
2018-10-02T06:01:27.516Z,53.75
2018-10-02T06:02:27.623Z,53.78
2018-10-02T06:03:27.826Z,53.74
2018-10-02T06:04:27.346Z,53.73
2018-10-02T06:05:27.360Z,53.74
2018-10-02T06:06:27.558Z,53.75
2018-10-02T06:07:27.268Z,53.74
2018-10-02T06:08:27.573Z,53.73
2018-10-02T06:09:27.370Z,53.69
2018-10-02T06:10:27.530Z,53.73
2018-10-02T06:11:27.250Z,53.75
2018-10-02T06:12:27.074Z,53.72
2018-10-02T06:13:27.451Z,53.72
2018-10-02T06:14:27.141Z,53.72
2018-10-02T06:15:27.368Z,53.83
2018-10-02T06:16:27.408Z,53.85
2018-10-02T06:17:27.467Z,53.84
2018-10-02T06:18:27.517Z,53.81
2018-10-02T06:19:27.324Z,53.85
2018-10-02T06:20:27.279Z,53.79
2018-10-02T06:21:27.358Z,53.79
2018-10-02T06:22:27.391Z,53.78
2018-10-02T06:23:27.623Z,53.79
2018-10-02T06:24:27.385Z,53.63
2018-10-02T06:25:27.258Z,53.67
2018-10-02T06:26:28.105Z,53.58
2018-10-02T06:27:27.365Z,53.53
2018-10-02T06:28:27.539Z,53.48
2018-10-02T06:29:27.383Z,53.5
2018-10-02T06:30:28.850Z,53.45
2018-10-02T06:31:27.380Z,53.47
2018-10-02T06:32:27.319Z,53.48
2018-10-02T06:33:27.337Z,53.48
2018-10-02T06:34:27.449Z,53.53
2018-10-02T06:35:27.336Z,53.6
2018-10-02T06:36:27.374Z,53.57
2018-10-02T06:37:27.371Z,53.53
2018-10-02T06:38:30.172Z,53.47
2018-10-02T06:39:27.318Z,53.46
2018-10-02T06:40:28.311Z,53.32
2018-10-02T06:41:27.531Z,53.19
2018-10-02T06:42:27.255Z,53.12
2018-10-02T06:43:27.759Z,53.16
2018-10-02T06:44:28.004Z,53.23
2018-10-02T06:45:27.628Z,53.06
2018-10-02T06:46:27.386Z,53.04
2018-10-02T06:47:27.282Z,53.17
2018-10-02T06:48:27.467Z,53.13
2018-10-02T06:49:27.324Z,53.02
2018-10-02T06:50:27.320Z,53.05
2018-10-02T06:51:28.744Z,52.86
2018-10-02T06:52:31.509Z,52.94
2018-10-02T06:53:27.372Z,52.85
2018-10-02T06:54:27.361Z,52.92
2018-10-02T06:55:27.519Z,52.92
2018-10-02T06:56:27.673Z,52.91
2018-10-02T06:57:27.808Z,52.83
2018-10-02T06:58:27.310Z,52.9
2018-10-02T06:59:27.219Z,52.92
2018-10-02T07:00:27.581Z,52.89
2018-10-02T07:01:27.239Z,52.88
2018-10-02T07:02:27.657Z,52.86
2018-10-02T07:03:27.224Z,52.86
2018-10-02T07:04:27.370Z,52.89
2018-10-02T07:05:27.571Z,52.86
2018-10-02T07:06:27.434Z,52.84
2018-10-02T07:07:27.450Z,52.79
2018-10-02T07:08:27.680Z,52.83
2018-10-02T07:09:27.307Z,52.8
2018-10-02T07:10:27.604Z,52.83
2018-10-02T07:11:27.203Z,52.62
2018-10-02T07:12:27.703Z,52.74
2018-10-02T07:13:27.081Z,52.73
2018-10-02T07:14:27.949Z,52.78
2018-10-02T07:15:27.447Z,52.76
2018-10-02T07:16:27.207Z,52.86
2018-10-02T07:17:28.086Z,52.77
2018-10-02T07:18:27.108Z,52.78
2018-10-02T07:19:27.276Z,52.83
2018-10-02T07:20:27.717Z,52.78
2018-10-02T07:21:27.287Z,52.86
2018-10-02T07:22:27.289Z,52.91
2018-10-02T07:23:27.216Z,52.95
2018-10-02T07:24:27.192Z,52.97
2018-10-02T07:25:27.160Z,53.04
2018-10-02T07:26:28.261Z,53.01
2018-10-02T07:27:30.470Z,53.03
2018-10-02T07:28:28.862Z,53.02
2018-10-02T07:29:27.452Z,53.01
2018-10-02T07:30:27.703Z,53.06
2018-10-02T07:31:27.517Z,53.05
2018-10-02T07:32:27.717Z,53.09
2018-10-02T07:33:27.340Z,53.11
2018-10-02T07:34:27.252Z,53.06
2018-10-02T07:35:27.558Z,53.14
2018-10-02T07:36:28.309Z,53.2
2018-10-02T07:37:27.806Z,53.19
2018-10-02T07:38:28.358Z,53.2
2018-10-02T07:39:27.328Z,53.2
2018-10-02T07:40:27.608Z,53.15
2018-10-02T07:41:28.100Z,53.14
2018-10-02T07:42:28.523Z,53.22
2018-10-02T07:43:27.325Z,53.26
2018-10-02T07:44:27.713Z,53.24
2018-10-02T07:45:27.572Z,53.26
2018-10-02T07:46:27.438Z,53.21
2018-10-02T07:47:27.689Z,53.27
2018-10-02T07:48:28.151Z,53.27
2018-10-02T07:49:27.291Z,53.24
2018-10-02T07:50:27.566Z,53.21
2018-10-02T07:51:27.474Z,53.27
2018-10-02T07:52:27.200Z,53.29
2018-10-02T07:53:27.854Z,53.32
2018-10-02T07:54:27.246Z,53.29
2018-10-02T07:55:28.340Z,53.32
2018-10-02T07:56:27.753Z,53.31
2018-10-02T07:57:27.336Z,53.36
2018-10-02T07:58:27.503Z,53.35
2018-10-02T07:59:27.647Z,53.35
2018-10-02T08:00:27.281Z,53.32
2018-10-02T08:01:27.624Z,53.34
2018-10-02T08:02:28.247Z,53.29
2018-10-02T08:03:27.484Z,53.29
2018-10-02T08:04:27.314Z,53.35
2018-10-02T08:05:27.989Z,53.34
2018-10-02T08:06:27.120Z,53.37
2018-10-02T08:07:27.171Z,53.4
2018-10-02T08:08:27.873Z,53.4
2018-10-02T08:09:27.201Z,53.44
2018-10-02T08:10:27.448Z,53.4
2018-10-02T08:11:27.540Z,53.38
2018-10-02T08:12:29.761Z,53.4
2018-10-02T08:13:27.900Z,53.39
2018-10-02T08:14:27.554Z,53.41
2018-10-02T08:15:27.135Z,53.39
2018-10-02T08:16:27.236Z,53.4
2018-10-02T08:17:28.318Z,53.41
2018-10-02T08:18:27.252Z,53.39
2018-10-02T08:19:27.500Z,53.46
2018-10-02T08:20:27.922Z,53.47
2018-10-02T08:21:27.260Z,53.45
2018-10-02T08:22:27.271Z,53.42
2018-10-02T08:23:28.246Z,53.44
2018-10-02T08:24:27.262Z,53.43
2018-10-02T08:25:27.235Z,53.48
2018-10-02T08:26:27.672Z,53.44
2018-10-02T08:27:28.565Z,53.41
2018-10-02T08:28:27.299Z,53.44
2018-10-02T08:29:28.496Z,53.45
2018-10-02T08:30:29.071Z,53.46
2018-10-02T08:31:27.339Z,53.43
2018-10-02T08:32:28.070Z,53.48
2018-10-02T08:33:27.191Z,53.43
2018-10-02T08:34:27.267Z,53.4
2018-10-02T08:35:28.322Z,53.36
2018-10-02T08:36:28.174Z,53.37
2018-10-02T08:37:27.253Z,53.44
2018-10-02T08:38:27.715Z,53.45
2018-10-02T08:39:27.078Z,53.48
2018-10-02T08:40:27.259Z,53.44
2018-10-02T08:41:27.283Z,53.43
2018-10-02T08:42:27.293Z,53.45
2018-10-02T08:43:28.636Z,53.47
2018-10-02T08:44:27.681Z,53.51
2018-10-02T08:45:27.193Z,53.53
2018-10-02T08:46:27.233Z,53.52
2018-10-02T08:47:27.731Z,53.53
2018-10-02T08:48:27.148Z,53.56
2018-10-02T08:49:27.496Z,53.51
2018-10-02T08:50:27.898Z,53.52
2018-10-02T08:51:27.116Z,53.49
2018-10-02T08:52:27.272Z,53.56
2018-10-02T08:53:27.776Z,53.6
2018-10-02T08:54:27.111Z,53.56
2018-10-02T08:55:27.607Z,53.57
2018-10-02T08:56:27.221Z,53.52
2018-10-02T08:57:27.257Z,53.52
2018-10-02T08:58:27.228Z,53.51
2018-10-02T08:59:27.307Z,53.51
2018-10-02T09:00:27.667Z,53.54
2018-10-02T09:01:27.300Z,53.55
2018-10-02T09:02:27.181Z,53.59
2018-10-02T09:03:27.368Z,53.65
2018-10-02T09:04:27.223Z,53.6
2018-10-02T09:05:27.660Z,53.57
2018-10-02T09:06:27.639Z,53.56
2018-10-02T09:07:27.188Z,53.55
2018-10-02T09:08:27.334Z,53.56
2018-10-02T09:09:27.195Z,53.58
2018-10-02T09:10:27.797Z,53.57
2018-10-02T09:11:27.016Z,53.57
2018-10-02T09:12:27.802Z,53.53
2018-10-02T09:13:27.117Z,53.58
2018-10-02T09:14:27.327Z,53.55
2018-10-02T09:15:28.402Z,53.59
2018-10-02T09:16:28.837Z,53.53
2018-10-02T09:17:27.242Z,53.56
2018-10-02T09:18:27.818Z,53.57
2018-10-02T09:19:27.352Z,53.49
2018-10-02T09:20:27.082Z,53.5
2018-10-02T09:21:28.027Z,53.55
2018-10-02T09:22:27.768Z,53.55
2018-10-02T09:23:27.210Z,53.52
2018-10-02T09:24:27.829Z,53.53
2018-10-02T09:25:27.072Z,53.54
2018-10-02T09:26:27.294Z,53.53
2018-10-02T09:27:27.508Z,53.6
2018-10-02T09:28:28.132Z,53.62
2018-10-02T09:29:27.637Z,53.62
2018-10-02T09:30:29.375Z,53.67
2018-10-02T09:31:27.338Z,53.63
2018-10-02T09:32:27.252Z,53.61
2018-10-02T09:33:27.931Z,53.62
2018-10-02T09:34:27.365Z,53.62
2018-10-02T09:35:27.550Z,53.62
2018-10-02T09:36:28.250Z,53.68
2018-10-02T09:37:28.407Z,53.69
2018-10-02T09:38:27.309Z,53.66
2018-10-02T09:39:28.100Z,53.65
2018-10-02T09:40:27.712Z,53.67
2018-10-02T09:41:27.526Z,53.66
2018-10-02T09:42:27.707Z,53.65
2018-10-02T09:43:28.064Z,53.65
2018-10-02T09:44:27.198Z,53.65
2018-10-02T09:45:27.795Z,53.66
2018-10-02T09:46:27.209Z,53.71
2018-10-02T09:47:27.192Z,53.62
2018-10-02T09:48:28.460Z,53.66
2018-10-02T09:49:27.033Z,53.63
2018-10-02T09:50:27.685Z,53.67
2018-10-02T09:51:27.314Z,53.67
2018-10-02T09:52:27.201Z,53.66
2018-10-02T09:53:27.219Z,53.67
2018-10-02T09:54:27.706Z,53.63
2018-10-02T09:55:27.465Z,53.63
2018-10-02T09:56:28.180Z,53.64
2018-10-02T09:57:27.131Z,53.62
2018-10-02T09:58:28.036Z,53.69
2018-10-02T09:59:27.225Z,53.64
2018-10-02T10:00:27.888Z,53.69
2018-10-02T10:01:27.237Z,53.71
2018-10-02T10:02:27.545Z,53.65
2018-10-02T10:03:27.241Z,53.7
2018-10-02T10:04:27.770Z,53.69
2018-10-02T10:05:27.250Z,53.65
2018-10-02T10:06:27.150Z,53.73
2018-10-02T10:07:27.130Z,53.69
2018-10-02T10:08:27.012Z,53.66
2018-10-02T10:09:27.211Z,53.7
2018-10-02T10:10:28.138Z,53.7
2018-10-02T10:11:27.052Z,53.65
2018-10-02T10:12:27.119Z,53.66
2018-10-02T10:13:27.035Z,53.69
2018-10-02T10:14:27.176Z,53.7
2018-10-02T10:15:27.699Z,53.65
2018-10-02T10:16:27.985Z,53.69
2018-10-02T10:17:28.563Z,53.65
2018-10-02T10:18:27.160Z,53.72
2018-10-02T10:19:27.552Z,53.69
2018-10-02T10:20:27.439Z,53.66
2018-10-02T10:21:27.359Z,53.65
2018-10-02T10:22:27.765Z,53.72
2018-10-02T10:23:27.432Z,53.72
2018-10-02T10:24:27.276Z,53.79
2018-10-02T10:25:27.595Z,53.76
2018-10-02T10:26:27.767Z,53.72
2018-10-02T10:27:27.329Z,53.68
2018-10-02T10:28:27.971Z,53.77
2018-10-02T10:29:27.230Z,53.7
2018-10-02T10:30:27.079Z,53.74
2018-10-02T10:31:27.510Z,53.72
2018-10-02T10:32:27.303Z,53.7
2018-10-02T10:33:28.159Z,53.67
2018-10-02T10:34:28.181Z,53.66
2018-10-02T10:35:27.297Z,53.71
2018-10-02T10:36:27.121Z,53.72
2018-10-02T10:37:27.263Z,53.7
2018-10-02T10:38:27.011Z,53.68
2018-10-02T10:39:27.486Z,53.68
2018-10-02T10:40:27.511Z,53.68
2018-10-02T10:41:27.248Z,53.71
2018-10-02T10:42:27.495Z,53.7
2018-10-02T10:43:27.207Z,53.75
2018-10-02T10:44:27.628Z,53.75
2018-10-02T10:45:27.212Z,53.72
2018-10-02T10:46:27.838Z,53.75
2018-10-02T10:47:27.504Z,53.76
2018-10-02T10:48:27.378Z,53.74
2018-10-02T10:49:27.210Z,53.74
2018-10-02T10:50:27.006Z,53.74
2018-10-02T10:51:27.270Z,53.71
2018-10-02T10:52:27.860Z,53.7
2018-10-02T10:53:27.563Z,53.75
2018-10-02T10:54:27.370Z,53.75
2018-10-02T10:55:27.690Z,53.77
2018-10-02T10:56:27.949Z,53.75
2018-10-02T10:57:27.276Z,53.69
2018-10-02T10:58:27.898Z,53.76
2018-10-02T10:59:27.198Z,53.75
2018-10-02T11:00:27.454Z,53.71
2018-10-02T11:01:27.332Z,53.75
2018-10-02T11:02:27.445Z,53.76
2018-10-02T11:03:27.239Z,53.75
2018-10-02T11:04:27.754Z,53.72
2018-10-02T11:05:27.224Z,53.73
2018-10-02T11:06:27.151Z,53.77
2018-10-02T11:07:27.251Z,53.74
2018-10-02T11:08:27.465Z,53.76
2018-10-02T11:09:28.307Z,53.82
2018-10-02T11:10:27.434Z,53.76
2018-10-02T11:11:27.381Z,53.74
2018-10-02T11:12:27.587Z,53.74
2018-10-02T11:13:27.232Z,53.73
2018-10-02T11:14:27.030Z,53.73
2018-10-02T11:15:27.389Z,53.73
2018-10-02T11:16:27.203Z,53.71
2018-10-02T11:17:27.345Z,53.75
2018-10-02T11:18:27.432Z,53.78
2018-10-02T11:19:28.166Z,53.74
2018-10-02T11:20:27.256Z,53.8
2018-10-02T11:21:27.130Z,53.76
2018-10-02T11:22:27.136Z,53.78
2018-10-02T11:23:27.090Z,53.8
2018-10-02T11:24:27.217Z,53.78
2018-10-02T11:25:28.645Z,53.76
2018-10-02T11:26:27.232Z,53.76
2018-10-02T11:27:27.126Z,53.73
2018-10-02T11:28:27.041Z,53.71
2018-10-02T11:29:27.371Z,53.75
2018-10-02T11:30:27.163Z,53.76
2018-10-02T11:31:27.635Z,53.8
2018-10-02T11:32:27.081Z,53.85
2018-10-02T11:33:27.129Z,53.79
2018-10-02T11:34:27.430Z,53.79
2018-10-02T11:35:28.211Z,53.76
2018-10-02T11:36:27.190Z,53.75
2018-10-02T11:37:27.363Z,53.75
2018-10-02T11:38:27.128Z,53.78
2018-10-02T11:39:27.121Z,53.75
2018-10-02T11:40:27.117Z,53.74
2018-10-02T11:41:27.240Z,53.79
2018-10-02T11:42:27.173Z,53.78
2018-10-02T11:43:27.304Z,53.82
2018-10-02T11:44:29.381Z,53.81
2018-10-02T11:45:26.972Z,53.78
2018-10-02T11:46:27.098Z,53.8
2018-10-02T11:47:27.211Z,53.83
2018-10-02T11:48:27.203Z,53.85
2018-10-02T11:49:27.819Z,53.79
2018-10-02T11:50:27.108Z,53.82
2018-10-02T11:51:27.245Z,53.82
2018-10-02T11:52:27.212Z,53.8
2018-10-02T11:53:27.096Z,53.77
2018-10-02T11:54:27.271Z,53.77
2018-10-02T11:55:28.917Z,53.79
2018-10-02T11:56:27.327Z,53.84
2018-10-02T11:57:28.131Z,53.81
2018-10-02T11:58:27.145Z,53.84
2018-10-02T11:59:27.026Z,53.83
2018-10-02T12:00:28.253Z,53.85
2018-10-02T12:01:29.306Z,53.85
2018-10-02T12:02:27.863Z,53.86
2018-10-02T12:03:28.804Z,53.87
2018-10-02T12:04:27.503Z,53.89
2018-10-02T12:05:27.251Z,53.88
2018-10-02T12:06:27.168Z,53.86
2018-10-02T12:07:27.473Z,53.89
2018-10-02T12:08:27.172Z,53.87
2018-10-02T12:09:27.388Z,53.87
2018-10-02T12:10:27.474Z,53.89
2018-10-02T12:11:28.781Z,53.87
2018-10-02T12:12:27.499Z,53.87
2018-10-02T12:13:28.890Z,53.88
2018-10-02T12:14:31.163Z,53.89
2018-10-02T12:15:27.357Z,53.87
2018-10-02T12:16:27.239Z,53.76
2018-10-02T12:17:27.359Z,53.78
2018-10-02T12:18:27.181Z,53.75
2018-10-02T12:19:28.714Z,53.73
2018-10-02T12:20:27.159Z,53.78
2018-10-02T12:21:27.095Z,53.76
2018-10-02T12:22:27.286Z,53.81
2018-10-02T12:23:27.243Z,53.82
2018-10-02T12:24:27.491Z,53.78
2018-10-02T12:25:26.980Z,53.79
2018-10-02T12:26:27.505Z,53.78
2018-10-02T12:27:27.091Z,53.77
2018-10-02T12:28:27.724Z,53.79
2018-10-02T12:29:26.979Z,53.84
2018-10-02T12:30:27.281Z,53.81
2018-10-02T12:31:27.269Z,53.84
2018-10-02T12:32:26.992Z,53.84
2018-10-02T12:33:27.351Z,53.89
2018-10-02T12:34:27.229Z,53.84
2018-10-02T12:35:27.284Z,53.78
2018-10-02T12:36:27.250Z,53.79
2018-10-02T12:37:27.093Z,53.78
2018-10-02T12:38:28.024Z,53.82
2018-10-02T12:39:28.522Z,53.81
2018-10-02T12:40:27.188Z,53.82
2018-10-02T12:41:27.524Z,53.8
2018-10-02T12:42:27.168Z,53.82
2018-10-02T12:43:27.223Z,53.85
2018-10-02T12:44:27.565Z,53.87
2018-10-02T12:45:27.497Z,53.91
2018-10-02T12:46:27.475Z,53.86
2018-10-02T12:47:27.166Z,53.87
2018-10-02T12:48:28.066Z,53.88
2018-10-02T12:49:27.138Z,53.85
2018-10-02T12:50:27.055Z,53.83
2018-10-02T12:51:27.089Z,53.81
2018-10-02T12:52:28.687Z,53.85
2018-10-02T12:53:27.132Z,53.84
2018-10-02T12:54:27.175Z,53.79
2018-10-02T12:55:27.099Z,53.84
2018-10-02T12:56:27.278Z,53.87